General Aviation Weather

Text Reports

Enter one or more of the following location identifiers separated by a space:

Zip Code, Four-Character ICAO or Three-Character IATA airport codes.

METAR - Aviation Routine Weather Report
KPEO - Penn Yan, New York
Updated at 2:32 PM GMT on April 23, 2014 (10:32 AM EDT):
SPECI KPEO 231432Z AUTO 32011G15KT 6SM -RA BR BKN009 OVC016 03/02 A2980 RMK AO2 CIG 007V012 P0001 T00330017
TAF - Terminal Area Forecast
KPEO - Penn Yan, New York
Updated at 2:32 PM GMT on April 23, 2014 (10:32 AM EDT):
No TAF is currently available for this location.
Decoded:
No decoded TAF is available.
PIREP - Pilot Weather Report
KPEO - Penn Yan, New York
Updated at 2:32 PM GMT on April 23, 2014 (10:32 AM EDT):
No PIREP is currently available for this location.
AIRMET - Airmens Meteorological Information
KPEO - Penn Yan, New York
Updated at 2:32 PM GMT on April 23, 2014 (10:32 AM EDT):
No AIRMET is currently available for this location.
SIGMET - Significant Meteorological Information
KPEO - Penn Yan, New York
Updated at 2:32 PM GMT on April 23, 2014 (10:32 AM EDT):
No SIGMET is currently available for this location.
NOTAM - Notice to Airmen
KPEO - Penn Yan, New York
Updated at 2:32 PM GMT on April 23, 2014 (10:32 AM EDT):
No NOTAM is currently available for this location.
Forecast Area
KPEO - Penn Yan, New York
Updated at 2:32 PM GMT on April 23, 2014 (10:32 AM EDT):
No NOTAM is currently available for this location.
Aviation Weather Maps